createdAt,value
2023-03-26T00:00:48.485Z,100.00
2023-03-26T00:03:16.993Z,100.00
2023-03-26T00:05:45.856Z,100.00
2023-03-26T00:08:12.580Z,100.00
2023-03-26T00:10:41.428Z,100.00
2023-03-26T00:13:08.328Z,100.00
2023-03-26T00:15:36.745Z,100.00
2023-03-26T00:18:03.996Z,100.00
2023-03-26T00:20:34.575Z,100.00
2023-03-26T00:23:04.043Z,100.00
2023-03-26T00:25:32.009Z,100.00
2023-03-26T00:27:58.606Z,100.00
2023-03-26T00:30:25.130Z,100.00
2023-03-26T00:32:53.582Z,100.00
2023-03-26T00:35:22.352Z,100.00
2023-03-26T00:37:51.536Z,100.00
2023-03-26T00:40:18.270Z,100.00
2023-03-26T00:42:44.815Z,100.00
2023-03-26T00:45:11.613Z,100.00
2023-03-26T00:47:40.105Z,100.00
2023-03-26T00:50:15.274Z,100.00
2023-03-26T00:52:43.878Z,100.00
2023-03-26T00:55:11.000Z,100.00
2023-03-26T00:57:38.477Z,100.00
2023-03-26T01:00:16.879Z,100.00
2023-03-26T01:02:47.015Z,100.00
2023-03-26T01:05:53.024Z,100.00
2023-03-26T01:08:25.712Z,100.00
2023-03-26T01:11:02.733Z,100.00
2023-03-26T01:13:32.987Z,100.00
2023-03-26T01:16:02.037Z,100.00
2023-03-26T01:18:33.962Z,100.00
2023-03-26T01:21:05.743Z,100.00
2023-03-26T01:23:49.087Z,100.00
2023-03-26T01:26:26.234Z,100.00
2023-03-26T01:28:57.384Z,100.00
2023-03-26T01:31:37.202Z,100.00
2023-03-26T01:34:15.850Z,100.00
2023-03-26T01:37:08.738Z,100.00
2023-03-26T01:39:49.290Z,100.00
2023-03-26T01:42:43.923Z,100.00
2023-03-26T01:45:16.670Z,100.00
2023-03-26T01:47:45.162Z,100.00
2023-03-26T01:50:12.345Z,100.00
2023-03-26T01:52:39.386Z,100.00
2023-03-26T01:55:11.610Z,100.00
2023-03-26T01:58:02.586Z,100.00
2023-03-26T02:00:33.571Z,100.00
2023-03-26T02:03:18.924Z,100.00
2023-03-26T02:06:15.714Z,100.00
2023-03-26T02:08:53.998Z,100.00
2023-03-26T02:11:21.577Z,100.00
2023-03-26T02:13:51.222Z,100.00
2023-03-26T02:16:19.846Z,100.00
2023-03-26T02:18:51.277Z,100.00
2023-03-26T02:21:21.418Z,100.00
2023-03-26T02:23:57.757Z,100.00
2023-03-26T02:26:25.299Z,100.00
2023-03-26T02:28:51.872Z,100.00
2023-03-26T02:31:19.422Z,100.00
2023-03-26T02:33:47.646Z,100.00
2023-03-26T02:36:14.540Z,100.00
2023-03-26T02:38:41.771Z,100.00
2023-03-26T02:41:08.393Z,100.00
2023-03-26T02:43:34.965Z,100.00
2023-03-26T02:46:01.560Z,100.00
2023-03-26T02:48:28.152Z,100.00
2023-03-26T02:50:54.889Z,100.00
2023-03-26T02:53:24.113Z,100.00
2023-03-26T02:55:50.886Z,100.00
2023-03-26T02:58:17.670Z,100.00
2023-03-26T03:00:46.746Z,100.00
2023-03-26T03:03:14.158Z,100.00
2023-03-26T03:05:43.285Z,100.00
2023-03-26T03:08:10.353Z,100.00
2023-03-26T03:10:37.794Z,100.00
2023-03-26T03:13:07.751Z,100.00
2023-03-26T03:15:35.034Z,100.00
2023-03-26T03:18:01.909Z,100.00
2023-03-26T03:20:30.311Z,100.00
2023-03-26T03:22:56.854Z,100.00
2023-03-26T03:25:23.412Z,100.00
2023-03-26T03:27:50.284Z,100.00
2023-03-26T03:30:17.062Z,100.00
2023-03-26T03:32:43.624Z,100.00
2023-03-26T03:35:10.210Z,100.00
2023-03-26T03:37:36.770Z,100.00
2023-03-26T03:40:07.471Z,100.00
2023-03-26T03:42:34.066Z,100.00
2023-03-26T03:45:01.961Z,100.00
2023-03-26T03:47:28.523Z,100.00
2023-03-26T03:49:56.937Z,100.00
2023-03-26T03:52:23.481Z,100.00
2023-03-26T03:54:51.062Z,100.00
2023-03-26T03:57:18.841Z,100.00
2023-03-26T03:59:47.775Z,100.00
2023-03-26T04:02:21.254Z,100.00
2023-03-26T04:04:50.126Z,100.00
2023-03-26T04:07:16.824Z,100.00
2023-03-26T04:09:43.385Z,100.00
2023-03-26T04:12:09.923Z,100.00
2023-03-26T04:14:36.603Z,100.00
2023-03-26T04:17:05.391Z,100.00
2023-03-26T04:19:31.999Z,100.00
2023-03-26T04:22:02.719Z,100.00
2023-03-26T04:24:29.914Z,100.00
2023-03-26T04:27:01.201Z,100.00
2023-03-26T04:29:30.688Z,100.00
2023-03-26T04:32:06.743Z,100.00
2023-03-26T04:34:34.187Z,100.00
2023-03-26T04:37:05.036Z,100.00
2023-03-26T04:39:33.990Z,100.00
2023-03-26T04:42:00.637Z,100.00
2023-03-26T04:44:30.322Z,100.00
2023-03-26T04:46:56.980Z,100.00
2023-03-26T04:49:23.530Z,100.00
2023-03-26T04:51:50.136Z,100.00
2023-03-26T04:54:22.418Z,100.00
2023-03-26T04:56:58.440Z,100.00
2023-03-26T04:59:29.991Z,100.00
2023-03-26T05:01:58.009Z,100.00
2023-03-26T05:04:24.867Z,100.00
2023-03-26T05:06:51.693Z,100.00
2023-03-26T05:09:18.958Z,100.00
2023-03-26T05:11:45.663Z,100.00
2023-03-26T05:14:12.314Z,100.00
2023-03-26T05:16:39.600Z,100.00
2023-03-26T05:19:06.993Z,100.00
2023-03-26T05:21:33.586Z,100.00
2023-03-26T05:24:00.492Z,100.00
2023-03-26T05:26:27.176Z,100.00
2023-03-26T05:28:53.723Z,100.00
2023-03-26T05:31:23.646Z,100.00
2023-03-26T05:33:50.675Z,100.00
2023-03-26T05:36:17.386Z,100.00
2023-03-26T05:38:50.028Z,100.00
2023-03-26T05:41:17.635Z,100.00
2023-03-26T05:43:48.899Z,100.00
2023-03-26T05:46:15.680Z,100.00
2023-03-26T05:48:42.403Z,100.00
2023-03-26T05:51:09.062Z,100.00
2023-03-26T05:53:35.856Z,100.00
2023-03-26T05:56:02.468Z,100.00
2023-03-26T05:58:30.969Z,100.00
2023-03-26T06:00:59.977Z,100.00
2023-03-26T06:03:26.971Z,100.00
2023-03-26T06:05:53.733Z,100.00
2023-03-26T06:08:21.913Z,100.00
2023-03-26T06:10:49.839Z,100.00
2023-03-26T06:13:17.388Z,100.00
2023-03-26T06:15:44.025Z,100.00
2023-03-26T06:18:11.252Z,100.00
2023-03-26T06:20:37.839Z,100.00
2023-03-26T06:23:04.441Z,100.00
2023-03-26T06:25:31.140Z,100.00
2023-03-26T06:27:57.787Z,100.00
2023-03-26T06:30:24.355Z,100.00
2023-03-26T06:32:51.024Z,100.00
2023-03-26T06:35:17.631Z,100.00
2023-03-26T06:37:44.307Z,100.00
2023-03-26T06:40:11.414Z,100.00
2023-03-26T06:43:08.174Z,100.00
2023-03-26T06:45:24.972Z,100.00
2023-03-26T06:47:51.534Z,100.00
2023-03-26T06:50:18.536Z,100.00
2023-03-26T06:52:45.212Z,100.00
2023-03-26T06:55:12.868Z,100.00
2023-03-26T06:57:39.505Z,100.00
2023-03-26T07:00:08.724Z,100.00
2023-03-26T07:02:35.940Z,100.00
2023-03-26T07:05:02.609Z,100.00
2023-03-26T07:07:29.190Z,100.00
2023-03-26T07:09:55.740Z,100.00
2023-03-26T07:12:22.283Z,100.00
2023-03-26T07:14:48.950Z,100.00
2023-03-26T07:17:15.817Z,100.00
2023-03-26T07:19:42.382Z,100.00
2023-03-26T07:22:22.065Z,100.00
2023-03-26T07:24:49.462Z,100.00
2023-03-26T07:27:16.466Z,100.00
2023-03-26T07:29:52.323Z,100.00
2023-03-26T07:32:43.374Z,100.00
2023-03-26T07:35:28.327Z,100.00
2023-03-26T07:38:01.094Z,100.00
2023-03-26T07:40:36.822Z,100.00
2023-03-26T07:43:12.350Z,100.00
2023-03-26T07:45:44.148Z,100.00
2023-03-26T07:48:21.058Z,100.00
2023-03-26T07:50:48.644Z,100.00
2023-03-26T07:53:15.452Z,100.00
2023-03-26T07:56:16.698Z,100.00
2023-03-26T07:58:49.312Z,100.00
2023-03-26T08:01:36.413Z,100.00
2023-03-26T08:04:24.116Z,100.00
2023-03-26T08:07:05.235Z,100.00
2023-03-26T08:09:38.801Z,100.00
2023-03-26T08:12:08.057Z,100.00
2023-03-26T08:14:54.537Z,100.00
2023-03-26T08:17:40.606Z,100.00
2023-03-26T08:20:44.875Z,100.00
2023-03-26T08:23:27.806Z,100.00
2023-03-26T08:26:05.096Z,100.00
2023-03-26T08:28:58.688Z,100.00
2023-03-26T08:31:35.058Z,100.00
2023-03-26T08:34:02.347Z,100.00
2023-03-26T08:36:29.537Z,100.00
2023-03-26T08:38:57.421Z,100.00
2023-03-26T08:41:51.878Z,100.00
2023-03-26T08:44:51.141Z,100.00
2023-03-26T08:47:46.585Z,100.00
2023-03-26T08:50:19.036Z,100.00
2023-03-26T08:53:14.355Z,100.00
2023-03-26T08:55:44.925Z,100.00
2023-03-26T08:58:35.456Z,100.00
2023-03-26T09:01:33.158Z,100.00
2023-03-26T09:04:27.911Z,100.00
2023-03-26T09:07:00.475Z,100.00
2023-03-26T09:09:56.171Z,100.00
2023-03-26T09:12:50.714Z,100.00
2023-03-26T09:15:38.618Z,100.00
2023-03-26T09:18:44.800Z,100.00
2023-03-26T09:22:07.556Z,100.00
2023-03-26T09:24:58.296Z,100.00
2023-03-26T09:27:36.012Z,100.00
2023-03-26T09:30:20.588Z,100.00
2023-03-26T09:33:17.687Z,100.00
2023-03-26T09:36:04.332Z,100.00
2023-03-26T09:38:44.027Z,100.00
2023-03-26T09:41:17.893Z,100.00
2023-03-26T09:44:12.650Z,100.00
2023-03-26T09:47:12.988Z,100.00
2023-03-26T09:49:59.749Z,100.00
2023-03-26T09:53:03.198Z,100.00
2023-03-26T09:55:34.524Z,100.00
2023-03-26T09:58:16.166Z,100.00
2023-03-26T10:01:05.747Z,100.00
2023-03-26T10:03:53.303Z,100.00
2023-03-26T10:06:37.273Z,100.00
2023-03-26T10:09:37.161Z,100.00
2023-03-26T10:12:18.746Z,100.00
2023-03-26T10:15:12.850Z,100.00
2023-03-26T10:18:26.604Z,100.00
2023-03-26T10:21:11.588Z,100.00
2023-03-26T10:24:07.175Z,100.00
2023-03-26T10:27:09.007Z,100.00
2023-03-26T10:29:57.947Z,100.00
2023-03-26T10:32:46.808Z,100.00
2023-03-26T10:35:22.387Z,100.00
2023-03-26T10:38:06.518Z,100.00
2023-03-26T10:40:45.140Z,100.00
2023-03-26T10:43:41.932Z,100.00
2023-03-26T10:46:21.093Z,100.00
2023-03-26T10:49:24.993Z,100.00
2023-03-26T10:52:06.987Z,100.00
2023-03-26T10:54:56.728Z,100.00
2023-03-26T10:57:58.807Z,100.00
2023-03-26T11:00:29.037Z,88.76
2023-03-26T11:03:23.199Z,75.05
2023-03-26T11:06:25.545Z,72.98
2023-03-26T11:09:02.009Z,70.44
2023-03-26T11:11:41.993Z,65.76
2023-03-26T11:14:34.455Z,59.17
2023-03-26T11:17:01.605Z,59.27
2023-03-26T11:19:43.187Z,59.77
2023-03-26T11:22:21.845Z,64.59
2023-03-26T11:25:00.371Z,67.04
2023-03-26T11:28:05.050Z,71.38
2023-03-26T11:30:58.511Z,79.45
2023-03-26T11:33:35.060Z,81.50
2023-03-26T11:36:07.246Z,66.21
2023-03-26T11:38:44.572Z,63.71
2023-03-26T11:41:15.124Z,66.38
2023-03-26T11:43:41.650Z,75.59
2023-03-26T11:46:14.116Z,77.08
2023-03-26T11:48:46.230Z,82.58
2023-03-26T11:51:26.532Z,84.56
2023-03-26T11:53:54.555Z,71.23
2023-03-26T11:56:27.765Z,58.91
2023-03-26T11:59:05.779Z,53.51
2023-03-26T12:01:55.398Z,54.29
2023-03-26T12:04:40.691Z,56.44
2023-03-26T12:07:21.122Z,58.58
2023-03-26T12:10:17.924Z,61.81
2023-03-26T12:12:47.550Z,66.60
2023-03-26T12:15:19.891Z,70.39
2023-03-26T12:17:51.391Z,64.07
2023-03-26T12:20:24.924Z,57.41
2023-03-26T12:23:01.901Z,58.11
2023-03-26T12:25:33.785Z,61.50
2023-03-26T12:28:05.414Z,63.71
2023-03-26T12:30:39.670Z,68.49
2023-03-26T12:33:15.117Z,71.86
2023-03-26T12:35:42.788Z,68.01
2023-03-26T12:38:35.839Z,66.95
2023-03-26T12:44:44.871Z,68.09
2023-03-26T12:44:56.033Z,74.29
2023-03-26T12:48:00.299Z,81.20
2023-03-26T12:50:14.383Z,84.44
2023-03-26T12:53:25.587Z,81.30
2023-03-26T12:56:01.637Z,78.70
2023-03-26T12:58:51.399Z,75.50
2023-03-26T13:01:41.833Z,73.12
2023-03-26T13:04:41.446Z,65.48
2023-03-26T13:07:40.514Z,57.72
2023-03-26T13:10:29.307Z,53.65
2023-03-26T13:13:18.707Z,55.95
2023-03-26T13:15:54.047Z,58.69
2023-03-26T13:18:52.617Z,59.91
2023-03-26T13:21:53.115Z,63.20
2023-03-26T13:24:45.377Z,72.00
2023-03-26T13:27:30.005Z,84.72
2023-03-26T13:30:02.876Z,95.52
2023-03-26T13:32:40.986Z,100.00
2023-03-26T13:35:15.808Z,100.00
2023-03-26T13:37:56.856Z,100.00
2023-03-26T13:40:34.817Z,100.00
2023-03-26T13:43:10.314Z,100.00
2023-03-26T13:45:49.576Z,100.00
2023-03-26T13:48:24.412Z,100.00
2023-03-26T13:51:13.053Z,100.00
2023-03-26T13:53:55.268Z,100.00
2023-03-26T13:56:28.228Z,100.00
2023-03-26T13:59:01.254Z,100.00
2023-03-26T14:01:36.321Z,98.24
2023-03-26T14:04:17.812Z,84.96
2023-03-26T14:06:57.154Z,84.12
2023-03-26T14:09:32.041Z,84.71
2023-03-26T14:12:21.792Z,87.78
2023-03-26T14:14:58.899Z,86.96
2023-03-26T14:17:34.316Z,88.53
2023-03-26T14:20:27.032Z,89.15
2023-03-26T14:23:02.801Z,85.82
2023-03-26T14:25:47.209Z,65.09
2023-03-26T14:28:47.618Z,63.21
2023-03-26T14:31:23.701Z,52.88
2023-03-26T14:33:55.875Z,43.54
2023-03-26T14:36:43.854Z,37.74
2023-03-26T14:39:47.940Z,35.54
2023-03-26T14:42:55.151Z,36.19
2023-03-26T14:45:55.562Z,37.75
2023-03-26T14:48:57.263Z,39.89
2023-03-26T14:51:29.072Z,38.85
2023-03-26T14:54:01.603Z,39.13
2023-03-26T14:56:47.027Z,39.55
2023-03-26T14:59:34.760Z,38.59
2023-03-26T15:02:26.298Z,36.27
2023-03-26T15:05:11.445Z,34.14
2023-03-26T15:08:05.761Z,31.68
2023-03-26T15:11:09.995Z,30.16
2023-03-26T15:14:01.879Z,30.94
2023-03-26T15:16:31.437Z,34.51
2023-03-26T15:19:22.780Z,37.96
2023-03-26T15:22:12.670Z,41.44
2023-03-26T15:25:10.392Z,44.80
2023-03-26T15:27:55.051Z,47.37
2023-03-26T15:30:50.238Z,49.38
2023-03-26T15:33:43.849Z,51.52
2023-03-26T15:36:38.223Z,55.20
2023-03-26T15:39:23.405Z,58.43
2023-03-26T15:41:58.055Z,62.19
2023-03-26T15:45:15.719Z,66.34
2023-03-26T15:47:49.904Z,70.88
2023-03-26T15:50:31.652Z,75.20
2023-03-26T15:53:23.537Z,78.92
2023-03-26T15:56:04.738Z,81.43
2023-03-26T15:58:41.685Z,84.09
2023-03-26T16:01:42.434Z,88.68
2023-03-26T16:04:50.278Z,92.02
2023-03-26T16:07:42.453Z,96.32
2023-03-26T16:10:46.634Z,98.72
2023-03-26T16:13:26.615Z,98.03
2023-03-26T16:15:56.123Z,100.00
2023-03-26T16:18:30.397Z,100.00
2023-03-26T16:21:32.354Z,100.00
2023-03-26T16:24:02.173Z,100.00
2023-03-26T16:26:31.829Z,100.00
2023-03-26T16:29:14.297Z,100.00
2023-03-26T16:32:05.820Z,100.00
2023-03-26T16:34:59.418Z,100.00
2023-03-26T16:37:37.911Z,100.00
2023-03-26T16:40:20.790Z,100.00
2023-03-26T16:43:05.973Z,100.00
2023-03-26T16:45:56.863Z,100.00
2023-03-26T16:48:35.005Z,100.00
2023-03-26T16:51:27.347Z,100.00
2023-03-26T16:53:58.241Z,100.00
2023-03-26T16:57:06.552Z,100.00
2023-03-26T17:00:05.391Z,100.00
2023-03-26T17:03:00.500Z,100.00
2023-03-26T17:05:34.296Z,100.00
2023-03-26T17:08:36.385Z,100.00
2023-03-26T17:11:09.169Z,100.00
2023-03-26T17:13:52.934Z,100.00
2023-03-26T17:16:28.725Z,100.00
2023-03-26T17:19:05.364Z,100.00
2023-03-26T17:21:49.958Z,100.00
2023-03-26T17:24:26.592Z,100.00
2023-03-26T17:27:00.298Z,100.00
2023-03-26T17:29:45.543Z,100.00
2023-03-26T17:32:15.516Z,100.00
2023-03-26T17:34:50.978Z,100.00
2023-03-26T17:37:18.856Z,100.00
2023-03-26T17:39:48.192Z,100.00
2023-03-26T17:42:35.541Z,100.00
2023-03-26T17:45:25.097Z,100.00
2023-03-26T17:48:00.107Z,100.00
2023-03-26T17:50:32.051Z,100.00
2023-03-26T17:53:05.925Z,100.00
2023-03-26T17:55:36.445Z,100.00
2023-03-26T17:58:05.733Z,100.00
2023-03-26T18:00:42.266Z,100.00
2023-03-26T18:03:24.115Z,100.00
2023-03-26T18:05:57.237Z,100.00
2023-03-26T18:09:01.161Z,100.00
2023-03-26T18:11:50.789Z,100.00
2023-03-26T18:14:38.749Z,100.00
2023-03-26T18:17:06.387Z,100.00
2023-03-26T18:19:52.403Z,100.00
2023-03-26T18:22:30.519Z,100.00
2023-03-26T18:25:00.613Z,100.00
2023-03-26T18:27:36.910Z,100.00
2023-03-26T18:30:14.290Z,100.00
2023-03-26T18:32:52.429Z,100.00
2023-03-26T18:35:21.522Z,100.00
2023-03-26T18:37:51.911Z,100.00
2023-03-26T18:40:21.437Z,100.00
2023-03-26T18:42:55.142Z,100.00
2023-03-26T18:45:31.639Z,100.00
2023-03-26T18:48:02.075Z,100.00
2023-03-26T18:50:34.729Z,100.00
2023-03-26T18:53:01.633Z,100.00
2023-03-26T18:55:30.750Z,100.00
2023-03-26T18:57:57.724Z,100.00
2023-03-26T19:00:27.808Z,100.00
2023-03-26T19:03:03.544Z,100.00
2023-03-26T19:05:32.975Z,100.00
2023-03-26T19:08:03.608Z,100.00
2023-03-26T19:10:33.005Z,100.00
2023-03-26T19:13:03.394Z,100.00
2023-03-26T19:15:35.519Z,100.00
2023-03-26T19:18:12.174Z,100.00
2023-03-26T19:20:45.607Z,100.00
2023-03-26T19:23:21.674Z,100.00
2023-03-26T19:26:00.100Z,100.00
2023-03-26T19:28:31.778Z,100.00
2023-03-26T19:31:15.641Z,100.00
2023-03-26T19:33:44.272Z,100.00
2023-03-26T19:36:14.259Z,100.00
2023-03-26T19:38:52.820Z,100.00
2023-03-26T19:41:31.119Z,100.00
2023-03-26T19:44:26.524Z,100.00
2023-03-26T19:47:02.257Z,100.00
2023-03-26T19:49:42.345Z,100.00
2023-03-26T19:52:17.614Z,100.00
2023-03-26T19:55:00.098Z,100.00
2023-03-26T19:57:37.254Z,100.00
2023-03-26T20:00:13.366Z,100.00
2023-03-26T20:02:42.212Z,100.00
2023-03-26T20:05:31.098Z,100.00
2023-03-26T20:08:00.004Z,100.00
2023-03-26T20:10:27.608Z,100.00
2023-03-26T20:12:54.259Z,100.00
2023-03-26T20:15:26.214Z,100.00
2023-03-26T20:17:54.540Z,100.00
2023-03-26T20:20:25.384Z,100.00
2023-03-26T20:22:53.813Z,100.00
2023-03-26T20:25:23.366Z,100.00
2023-03-26T20:27:52.985Z,100.00
2023-03-26T20:30:36.397Z,100.00
2023-03-26T20:33:12.521Z,100.00
2023-03-26T20:35:40.189Z,100.00
2023-03-26T20:38:09.609Z,100.00
2023-03-26T20:40:36.728Z,100.00
2023-03-26T20:43:03.252Z,100.00
2023-03-26T20:45:29.949Z,100.00
2023-03-26T20:47:57.232Z,100.00
2023-03-26T20:50:24.379Z,100.00
2023-03-26T20:52:51.022Z,100.00
2023-03-26T20:55:21.359Z,100.00
2023-03-26T20:57:48.648Z,100.00
2023-03-26T21:00:17.466Z,100.00
2023-03-26T21:02:44.078Z,100.00
2023-03-26T21:05:14.886Z,100.00
2023-03-26T21:07:42.953Z,100.00
2023-03-26T21:10:14.281Z,100.00
2023-03-26T21:13:17.867Z,100.00
2023-03-26T21:15:45.143Z,100.00
2023-03-26T21:18:12.195Z,100.00
2023-03-26T21:20:39.524Z,100.00
2023-03-26T21:23:08.764Z,100.00
2023-03-26T21:25:53.917Z,100.00
2023-03-26T21:28:42.256Z,100.00
2023-03-26T21:31:20.431Z,100.00
2023-03-26T21:33:49.274Z,100.00
2023-03-26T21:36:18.026Z,100.00
2023-03-26T21:38:45.540Z,100.00
2023-03-26T21:41:38.514Z,100.00
2023-03-26T21:44:05.411Z,100.00
2023-03-26T21:46:32.291Z,100.00
2023-03-26T21:48:59.084Z,100.00
2023-03-26T21:51:26.155Z,100.00
2023-03-26T21:53:53.028Z,100.00
2023-03-26T21:56:25.553Z,100.00
2023-03-26T21:59:02.539Z,100.00
2023-03-26T22:01:43.126Z,100.00
2023-03-26T22:04:12.760Z,100.00
2023-03-26T22:07:19.702Z,100.00
2023-03-26T22:09:46.954Z,100.00
2023-03-26T22:12:13.702Z,100.00
2023-03-26T22:14:40.520Z,100.00
2023-03-26T22:17:07.461Z,100.00
2023-03-26T22:19:34.636Z,100.00
2023-03-26T22:22:01.666Z,100.00
2023-03-26T22:24:28.562Z,100.00
2023-03-26T22:26:55.133Z,100.00
2023-03-26T22:29:21.858Z,100.00
2023-03-26T22:31:48.545Z,100.00
2023-03-26T22:34:15.230Z,100.00
2023-03-26T22:36:41.883Z,100.00
2023-03-26T22:39:08.444Z,100.00
2023-03-26T22:41:34.954Z,100.00
2023-03-26T22:44:12.941Z,100.00
2023-03-26T22:46:48.961Z,100.00
2023-03-26T22:49:16.278Z,100.00
2023-03-26T22:51:42.883Z,100.00
2023-03-26T22:54:09.643Z,100.00
2023-03-26T22:56:37.074Z,100.00
2023-03-26T22:59:03.905Z,100.00
2023-03-26T23:01:30.780Z,100.00
2023-03-26T23:03:57.916Z,100.00
2023-03-26T23:06:25.207Z,100.00
2023-03-26T23:08:51.869Z,100.00
2023-03-26T23:11:21.920Z,100.00
2023-03-26T23:13:49.048Z,100.00
2023-03-26T23:16:17.592Z,100.00
2023-03-26T23:18:44.912Z,100.00
2023-03-26T23:21:16.945Z,100.00
2023-03-26T23:23:43.917Z,100.00
2023-03-26T23:26:10.926Z,100.00
2023-03-26T23:28:38.335Z,100.00
2023-03-26T23:31:07.215Z,100.00
2023-03-26T23:33:36.933Z,100.00
2023-03-26T23:36:08.977Z,100.00
2023-03-26T23:38:44.005Z,100.00
2023-03-26T23:41:15.150Z,100.00
2023-03-26T23:43:54.808Z,100.00
2023-03-26T23:46:30.903Z,100.00
2023-03-26T23:48:59.852Z,100.00
2023-03-26T23:51:26.675Z,100.00
2023-03-26T23:53:54.069Z,100.00
2023-03-26T23:56:21.097Z,100.00
2023-03-26T23:58:48.951Z,100.00
